createdAt,value
2023-04-10T00:00:16.728Z,8.55
2023-04-10T00:02:45.835Z,8.45
2023-04-10T00:05:15.088Z,7.95
2023-04-10T00:07:45.477Z,9.35
2023-04-10T00:10:14.313Z,7.45
2023-04-10T00:12:43.273Z,9.75
2023-04-10T00:15:12.541Z,8.82
2023-04-10T00:17:41.551Z,8.55
2023-04-10T00:20:11.423Z,12.48
2023-04-10T00:22:42.146Z,9.20
2023-04-10T00:25:12.704Z,8.18
2023-04-10T00:27:41.671Z,8.43
2023-04-10T00:30:10.989Z,9.20
2023-04-10T00:32:39.959Z,10.57
2023-04-10T00:35:10.017Z,9.85
2023-04-10T00:37:39.230Z,8.07
2023-04-10T00:40:09.556Z,9.43
2023-04-10T00:42:39.953Z,9.85
2023-04-10T00:45:09.464Z,7.90
2023-04-10T00:47:39.509Z,8.20
2023-04-10T00:50:09.252Z,9.02
2023-04-10T00:52:39.023Z,8.75
2023-04-10T00:55:08.730Z,10.18
2023-04-10T00:57:39.382Z,9.00
2023-04-10T01:00:11.195Z,7.78
2023-04-10T01:02:40.372Z,9.15
2023-04-10T01:05:10.391Z,8.68
2023-04-10T01:07:51.847Z,8.93
2023-04-10T01:10:30.889Z,8.45
2023-04-10T01:13:09.990Z,6.75
2023-04-10T01:15:45.157Z,7.85
2023-04-10T01:18:20.676Z,7.05
2023-04-10T01:20:49.704Z,9.82
2023-04-10T01:23:55.816Z,7.75
2023-04-10T01:26:40.829Z,7.38
2023-04-10T01:29:19.594Z,5.78
2023-04-10T01:31:55.510Z,7.78
2023-04-10T01:34:33.121Z,8.55
2023-04-10T01:37:05.480Z,7.47
2023-04-10T01:39:38.955Z,8.23
2023-04-10T01:42:10.545Z,8.75
2023-04-10T01:44:44.041Z,6.40
2023-04-10T01:47:16.448Z,7.20
2023-04-10T01:49:48.389Z,6.07
2023-04-10T01:52:18.853Z,6.40
2023-04-10T01:54:53.550Z,8.40
2023-04-10T01:57:30.634Z,6.53
2023-04-10T02:00:02.265Z,6.55
2023-04-10T02:02:32.857Z,8.90
2023-04-10T02:05:01.887Z,7.80
2023-04-10T02:07:37.903Z,6.70
2023-04-10T02:10:12.842Z,5.70
2023-04-10T02:12:50.671Z,6.75
2023-04-10T02:15:22.714Z,6.07
2023-04-10T02:17:53.988Z,5.30
2023-04-10T02:20:25.063Z,5.80
2023-04-10T02:22:54.773Z,7.75
2023-04-10T02:25:23.797Z,6.82
2023-04-10T02:27:52.844Z,6.50
2023-04-10T02:30:24.827Z,6.78
2023-04-10T02:32:53.970Z,14.35
2023-04-10T02:35:22.716Z,5.75
2023-04-10T02:37:51.728Z,5.82
2023-04-10T02:40:20.976Z,6.93
2023-04-10T02:42:58.097Z,8.43
2023-04-10T02:45:28.565Z,6.88
2023-04-10T02:47:57.808Z,7.63
2023-04-10T02:50:29.742Z,5.78
2023-04-10T02:52:58.916Z,6.78
2023-04-10T02:55:28.047Z,5.72
2023-04-10T02:57:57.583Z,7.32
2023-04-10T03:00:27.787Z,7.15
2023-04-10T03:03:17.284Z,7.22
2023-04-10T03:05:55.871Z,6.20
2023-04-10T03:08:31.148Z,5.82
2023-04-10T03:11:00.029Z,5.65
2023-04-10T03:13:29.066Z,6.85
2023-04-10T03:15:59.359Z,6.55
2023-04-10T03:18:28.252Z,7.55
2023-04-10T03:20:58.186Z,5.45
2023-04-10T03:23:27.096Z,5.43
2023-04-10T03:25:56.312Z,5.93
2023-04-10T03:28:29.847Z,6.28
2023-04-10T03:31:00.032Z,6.18
2023-04-10T03:33:29.050Z,6.32
2023-04-10T03:35:58.529Z,5.45
2023-04-10T03:38:28.075Z,5.50
2023-04-10T03:40:57.204Z,5.25
2023-04-10T03:43:28.387Z,6.45
2023-04-10T03:45:57.232Z,5.45
2023-04-10T03:48:30.604Z,5.70
2023-04-10T03:50:59.841Z,5.47
2023-04-10T03:53:28.761Z,5.85
2023-04-10T03:55:57.763Z,4.88
2023-04-10T03:58:27.629Z,4.35
2023-04-10T04:00:58.329Z,6.45
2023-04-10T04:03:37.407Z,5.53
2023-04-10T04:06:25.199Z,4.95
2023-04-10T04:09:17.379Z,6.07
2023-04-10T04:11:54.325Z,7.40
2023-04-10T04:14:44.885Z,5.43
2023-04-10T04:17:32.588Z,6.50
2023-04-10T04:20:12.566Z,5.28
2023-04-10T04:23:07.276Z,4.85
2023-04-10T04:25:59.828Z,7.13
2023-04-10T04:28:47.991Z,6.30
2023-04-10T04:31:19.938Z,4.55
2023-04-10T04:34:07.706Z,6.95
2023-04-10T04:47:19.115Z,9.27
2023-04-10T04:49:58.547Z,6.43
2023-04-10T04:52:47.808Z,7.25
2023-04-10T04:55:35.449Z,5.70
2023-04-10T04:58:12.160Z,7.18
2023-04-10T05:01:02.027Z,5.50
2023-04-10T05:03:50.416Z,6.72
2023-04-10T05:06:51.475Z,5.47
2023-04-10T05:09:39.203Z,5.18
2023-04-10T05:12:28.308Z,7.38
2023-04-10T05:15:10.052Z,5.35
2023-04-10T05:17:53.269Z,7.22
2023-04-10T05:20:44.046Z,6.68
2023-04-10T05:23:31.473Z,5.63
2023-04-10T05:26:19.307Z,6.43
2023-04-10T05:29:10.431Z,5.90
2023-04-10T05:32:09.708Z,6.47
2023-04-10T05:34:46.153Z,5.60
2023-04-10T05:37:28.720Z,7.80
2023-04-10T05:40:17.480Z,5.22
2023-04-10T05:43:10.770Z,4.65
2023-04-10T05:45:58.925Z,6.18
2023-04-10T05:49:00.905Z,6.22
2023-04-10T05:51:50.266Z,4.75
2023-04-10T05:54:32.362Z,5.78
2023-04-10T05:57:20.005Z,5.65
2023-04-10T05:59:57.581Z,6.63
2023-04-10T06:02:44.136Z,6.18
2023-04-10T06:05:23.251Z,5.40
2023-04-10T06:07:59.761Z,7.55
2023-04-10T06:10:31.693Z,6.30
2023-04-10T06:13:00.961Z,5.78
2023-04-10T06:15:30.593Z,5.80
2023-04-10T06:18:00.007Z,6.15
2023-04-10T06:20:29.201Z,6.82
2023-04-10T06:22:58.317Z,5.60
2023-04-10T06:25:27.534Z,6.05
2023-04-10T06:27:58.115Z,9.57
2023-04-10T06:30:27.539Z,5.63
2023-04-10T06:32:56.507Z,5.45
2023-04-10T06:35:26.028Z,5.28
2023-04-10T06:37:54.993Z,4.78
2023-04-10T06:40:23.809Z,5.65
2023-04-10T06:42:52.750Z,4.93
2023-04-10T06:45:32.471Z,6.00
2023-04-10T06:48:01.701Z,4.50
2023-04-10T06:50:32.891Z,4.88
2023-04-10T06:53:02.329Z,7.65
2023-04-10T06:55:31.365Z,6.90
2023-04-10T06:58:00.438Z,4.63
2023-04-10T07:00:29.737Z,5.90
2023-04-10T07:03:00.472Z,4.05
2023-04-10T07:05:29.381Z,4.10
2023-04-10T07:07:58.532Z,5.47
2023-04-10T07:10:27.397Z,5.53
2023-04-10T07:12:57.328Z,4.32
2023-04-10T07:15:26.657Z,6.28
2023-04-10T07:17:56.444Z,4.72
2023-04-10T07:20:28.165Z,4.85
2023-04-10T07:22:56.980Z,6.07
2023-04-10T07:25:25.910Z,4.72
2023-04-10T07:27:54.958Z,4.57
2023-04-10T07:30:23.786Z,5.38
2023-04-10T07:32:52.949Z,5.25
2023-04-10T07:35:21.962Z,5.20
2023-04-10T07:37:53.097Z,4.95
2023-04-10T07:40:22.217Z,4.85
2023-04-10T07:42:53.335Z,7.63
2023-04-10T07:45:22.793Z,4.65
2023-04-10T07:47:51.725Z,6.45
2023-04-10T07:50:20.849Z,5.35
2023-04-10T07:52:51.825Z,4.68
2023-04-10T07:55:21.164Z,5.00
2023-04-10T07:57:52.290Z,4.18
2023-04-10T08:00:21.313Z,6.82
2023-04-10T08:02:50.262Z,4.63
2023-04-10T08:05:19.805Z,5.03
2023-04-10T08:07:48.734Z,6.97
2023-04-10T08:10:19.006Z,4.20
2023-04-10T08:12:47.929Z,5.97
2023-04-10T08:15:16.799Z,4.38
2023-04-10T08:17:45.579Z,5.05
2023-04-10T08:20:15.148Z,7.80
2023-04-10T08:22:44.216Z,5.95
2023-04-10T08:25:13.211Z,10.02
2023-04-10T08:27:43.792Z,5.47
2023-04-10T08:30:13.027Z,6.60
2023-04-10T08:32:42.210Z,5.13
2023-04-10T08:35:11.426Z,4.72
2023-04-10T08:37:40.275Z,6.22
2023-04-10T08:40:10.377Z,5.25
2023-04-10T08:42:39.388Z,4.88
2023-04-10T08:45:11.144Z,4.78
2023-04-10T08:47:42.830Z,6.55
2023-04-10T08:50:14.487Z,6.60
2023-04-10T08:52:46.461Z,6.88
2023-04-10T08:55:15.728Z,4.97
2023-04-10T08:57:54.332Z,4.15
2023-04-10T09:00:31.756Z,5.47
2023-04-10T09:03:00.938Z,6.20
2023-04-10T09:05:30.921Z,6.05
2023-04-10T09:07:59.698Z,5.10
2023-04-10T09:10:28.416Z,6.32
2023-04-10T09:12:57.320Z,4.70
2023-04-10T09:15:26.260Z,6.70
2023-04-10T09:18:01.654Z,5.57
2023-04-10T09:20:32.501Z,6.00
2023-04-10T09:23:02.492Z,5.85
2023-04-10T09:25:36.578Z,6.03
2023-04-10T09:28:06.910Z,7.78
2023-04-10T09:30:38.169Z,7.22
2023-04-10T09:33:24.001Z,5.45
2023-04-10T09:35:53.067Z,6.07
2023-04-10T09:38:23.173Z,6.15
2023-04-10T09:40:53.651Z,6.93
2023-04-10T09:43:25.285Z,5.30
2023-04-10T09:45:56.613Z,6.13
2023-04-10T09:48:27.957Z,4.50
2023-04-10T09:50:57.898Z,6.25
2023-04-10T09:53:26.828Z,5.38
2023-04-10T09:55:56.986Z,5.25
2023-04-10T09:58:26.547Z,5.78
2023-04-10T10:00:55.515Z,7.20
2023-04-10T10:03:25.604Z,6.85
2023-04-10T10:05:56.030Z,6.40
2023-04-10T10:08:25.399Z,4.95
2023-04-10T10:10:56.609Z,6.20
2023-04-10T10:13:29.513Z,5.28
2023-04-10T10:16:04.658Z,4.20
2023-04-10T10:18:40.481Z,6.60
2023-04-10T10:21:11.494Z,5.43
2023-04-10T10:23:43.464Z,5.88
2023-04-10T10:26:12.401Z,5.13
2023-04-10T10:28:42.002Z,5.32
2023-04-10T10:31:12.455Z,4.57
2023-04-10T10:33:42.372Z,5.25
2023-04-10T10:36:14.027Z,4.05
2023-04-10T10:38:50.078Z,3.03
2023-04-10T10:41:26.792Z,4.78
2023-04-10T10:44:02.694Z,4.65
2023-04-10T10:46:38.580Z,7.15
2023-04-10T10:49:07.615Z,5.35
2023-04-10T10:51:48.266Z,4.22
2023-04-10T10:54:33.591Z,4.18
2023-04-10T10:57:06.573Z,5.10
2023-04-10T10:59:57.797Z,3.35
2023-04-10T11:02:27.274Z,4.60
2023-04-10T11:04:56.347Z,4.70
2023-04-10T11:08:05.000Z,3.08
2023-04-10T11:11:00.934Z,4.45
2023-04-10T11:13:30.032Z,4.38
2023-04-10T11:15:59.409Z,5.25
2023-04-10T11:22:06.039Z,4.75
2023-04-10T11:24:56.317Z,3.63
2023-04-10T11:30:33.151Z,3.78
2023-04-10T11:33:03.975Z,3.30
2023-04-10T11:35:33.994Z,4.30
2023-04-10T11:38:16.514Z,3.25
2023-04-10T11:41:07.056Z,2.38
2023-04-10T11:43:36.039Z,3.75
2023-04-10T11:46:07.546Z,4.13
2023-04-10T11:48:38.038Z,2.78
2023-04-10T11:51:14.325Z,3.40
2023-04-10T11:53:43.700Z,2.58
2023-04-10T11:56:22.535Z,3.03
2023-04-10T11:58:54.685Z,5.93
2023-04-10T12:01:24.522Z,2.90
2023-04-10T12:03:53.744Z,3.35
2023-04-10T12:06:23.235Z,4.65
2023-04-10T12:08:52.356Z,2.72
2023-04-10T12:11:25.247Z,4.70
2023-04-10T12:13:55.071Z,3.22
2023-04-10T12:16:24.264Z,3.22
2023-04-10T12:18:54.528Z,2.08
2023-04-10T12:21:23.868Z,2.38
2023-04-10T12:23:53.091Z,3.58
2023-04-10T12:26:24.202Z,3.65
2023-04-10T12:28:54.786Z,2.90
2023-04-10T12:31:31.181Z,3.78
2023-04-10T12:34:03.472Z,4.43
2023-04-10T12:36:35.556Z,2.72
2023-04-10T12:39:08.921Z,2.33
2023-04-10T12:41:47.031Z,3.10
2023-04-10T12:44:21.096Z,4.60
2023-04-10T12:46:51.180Z,2.45
2023-04-10T12:49:20.363Z,2.60
2023-04-10T12:51:53.735Z,2.70
2023-04-10T12:54:30.688Z,3.22
2023-04-10T12:57:01.905Z,2.38
2023-04-10T12:59:31.447Z,4.25
2023-04-10T13:02:00.617Z,4.75
2023-04-10T13:04:31.701Z,19.58
2023-04-10T13:07:01.263Z,3.00
2023-04-10T13:09:30.018Z,2.70
2023-04-10T13:12:00.249Z,3.50
2023-04-10T13:14:29.045Z,4.18
2023-04-10T13:16:57.852Z,3.92
2023-04-10T13:19:26.723Z,3.45
2023-04-10T13:21:55.889Z,3.15
2023-04-10T13:24:24.782Z,2.60
2023-04-10T13:26:53.580Z,2.92
2023-04-10T13:29:24.031Z,4.68
2023-04-10T13:31:52.972Z,3.20
2023-04-10T13:34:21.941Z,2.25
2023-04-10T13:36:51.066Z,4.25
2023-04-10T13:39:19.869Z,2.50
2023-04-10T13:41:48.776Z,2.83
2023-04-10T13:44:17.602Z,2.97
2023-04-10T13:46:47.977Z,4.82
2023-04-10T13:49:17.909Z,2.80
2023-04-10T13:51:47.129Z,3.83
2023-04-10T13:54:17.069Z,3.05
2023-04-10T13:56:46.711Z,2.42
2023-04-10T13:59:15.818Z,4.22
2023-04-10T14:01:44.789Z,3.58
2023-04-10T14:04:15.125Z,3.28
2023-04-10T14:06:43.993Z,2.15
2023-04-10T14:09:12.947Z,2.80
2023-04-10T14:11:41.885Z,3.20
2023-04-10T14:14:10.893Z,2.72
2023-04-10T14:16:39.765Z,2.15
2023-04-10T14:19:08.603Z,3.42
2023-04-10T14:21:40.656Z,3.05
2023-04-10T14:24:09.657Z,3.55
2023-04-10T14:26:38.586Z,2.53
2023-04-10T14:29:08.700Z,2.88
2023-04-10T14:31:47.172Z,2.92
2023-04-10T14:34:23.675Z,3.75
2023-04-10T14:36:55.903Z,3.58
2023-04-10T14:39:25.871Z,3.08
2023-04-10T14:41:54.881Z,3.55
2023-04-10T14:44:23.837Z,4.05
2023-04-10T14:46:52.846Z,3.92
2023-04-10T14:49:21.838Z,3.92
2023-04-10T14:51:50.991Z,3.03
2023-04-10T14:54:23.636Z,4.53
2023-04-10T14:56:52.551Z,3.65
2023-04-10T14:59:21.393Z,3.45
2023-04-10T15:01:50.576Z,4.45
2023-04-10T15:04:19.585Z,2.95
2023-04-10T15:06:48.356Z,2.50
2023-04-10T15:09:17.188Z,3.38
2023-04-10T15:11:47.879Z,3.53
2023-04-10T15:14:17.103Z,3.75
2023-04-10T15:16:47.456Z,2.83
2023-04-10T15:19:16.262Z,3.97
2023-04-10T15:21:45.262Z,3.97
2023-04-10T15:24:14.329Z,5.05
2023-04-10T15:26:46.756Z,3.97
2023-04-10T15:31:45.020Z,3.35
2023-04-10T15:34:14.755Z,5.43
2023-04-10T15:36:43.558Z,5.63
2023-04-10T15:39:12.555Z,6.75
2023-04-10T15:41:41.439Z,8.43
2023-04-10T15:44:11.728Z,4.65
2023-04-10T15:46:40.770Z,4.35
2023-04-10T15:49:09.859Z,5.25
2023-04-10T15:51:41.948Z,6.32
2023-04-10T15:54:11.183Z,6.47
2023-04-10T15:56:40.736Z,7.43
2023-04-10T15:59:11.130Z,5.97
2023-04-10T16:01:40.441Z,8.60
2023-04-10T16:04:09.418Z,10.55
2023-04-10T16:06:38.524Z,8.75
2023-04-10T16:09:22.040Z,10.93
2023-04-10T16:11:54.109Z,7.93
2023-04-10T16:14:24.401Z,9.30
2023-04-10T16:16:53.288Z,14.07
2023-04-10T16:19:22.239Z,9.18
2023-04-10T16:21:51.305Z,8.57
2023-04-10T16:24:20.246Z,8.10
2023-04-10T16:26:49.003Z,12.45
2023-04-10T16:29:19.923Z,10.85
2023-04-10T16:31:50.479Z,8.60
2023-04-10T16:34:19.432Z,9.68
2023-04-10T16:36:48.328Z,20.85
2023-04-10T16:39:17.311Z,9.43
2023-04-10T16:41:46.264Z,8.88
2023-04-10T16:44:15.299Z,13.98
2023-04-10T16:46:44.271Z,10.45
2023-04-10T16:49:14.653Z,7.70
2023-04-10T16:51:43.416Z,6.20
2023-04-10T16:54:12.306Z,6.65
2023-04-10T16:56:41.142Z,8.20
2023-04-10T16:59:09.965Z,6.97
2023-04-10T17:01:40.660Z,5.05
2023-04-10T17:04:10.698Z,5.40
2023-04-10T17:06:40.912Z,4.88
2023-04-10T17:09:09.938Z,5.97
2023-04-10T17:11:39.253Z,5.45
2023-04-10T17:14:09.082Z,4.80
2023-04-10T17:16:38.197Z,4.03
2023-04-10T17:19:07.221Z,4.40
2023-04-10T17:21:36.301Z,4.45
2023-04-10T17:24:07.015Z,7.03
2023-04-10T17:26:36.005Z,4.43
2023-04-10T17:29:05.082Z,3.90
2023-04-10T17:31:34.100Z,5.15
2023-04-10T17:34:03.964Z,5.18
2023-04-10T17:36:33.304Z,3.83
2023-04-10T17:39:02.413Z,3.97
2023-04-10T17:41:32.643Z,2.38
2023-04-10T17:44:03.149Z,3.55
2023-04-10T17:46:32.078Z,3.58
2023-04-10T17:49:04.483Z,4.60
2023-04-10T17:51:34.082Z,4.82
2023-04-10T17:54:04.540Z,2.78
2023-04-10T17:56:35.185Z,3.45
2023-04-10T17:59:04.279Z,3.95
2023-04-10T18:01:33.113Z,4.47
2023-04-10T18:04:05.456Z,4.45
2023-04-10T18:06:34.649Z,4.10
2023-04-10T18:09:03.780Z,3.50
2023-04-10T18:11:33.989Z,2.55
2023-04-10T18:14:02.842Z,6.05
2023-04-10T18:16:31.695Z,3.95
2023-04-10T18:19:00.688Z,5.28
2023-04-10T18:21:29.581Z,5.80
2023-04-10T18:23:58.554Z,6.25
2023-04-10T18:26:29.685Z,7.25
2023-04-10T18:29:01.542Z,11.30
2023-04-10T18:31:30.512Z,7.32
2023-04-10T18:34:07.281Z,7.88
2023-04-10T18:36:37.546Z,6.80
2023-04-10T18:39:06.513Z,7.20
2023-04-10T18:41:38.976Z,5.43
2023-04-10T18:44:09.491Z,11.45
2023-04-10T18:46:38.998Z,12.13
2023-04-10T18:49:08.133Z,6.93
2023-04-10T18:51:38.517Z,8.00
2023-04-10T18:54:11.401Z,9.68
2023-04-10T18:56:40.305Z,12.07
2023-04-10T18:59:10.937Z,11.60
2023-04-10T19:01:40.057Z,8.68
2023-04-10T19:04:09.132Z,14.77
2023-04-10T19:06:39.792Z,15.05
2023-04-10T19:09:09.317Z,17.58
2023-04-10T19:11:38.128Z,14.57
2023-04-10T19:14:07.620Z,16.60
2023-04-10T19:16:38.121Z,8.18
2023-04-10T19:19:08.051Z,14.68
2023-04-10T19:21:36.908Z,11.68
2023-04-10T19:24:06.178Z,11.88
2023-04-10T19:26:35.392Z,13.40
2023-04-10T19:29:04.538Z,12.32
2023-04-10T19:31:33.780Z,15.57
2023-04-10T19:34:09.059Z,8.75
2023-04-10T19:36:38.255Z,10.13
2023-04-10T19:39:07.080Z,8.07
2023-04-10T19:41:37.332Z,9.70
2023-04-10T19:44:06.610Z,7.97
2023-04-10T19:46:38.523Z,11.35
2023-04-10T19:49:11.270Z,8.25
2023-04-10T19:51:41.208Z,9.48
2023-04-10T19:54:10.176Z,8.50
2023-04-10T19:56:39.306Z,12.20
2023-04-10T19:59:08.480Z,5.75
2023-04-10T20:01:37.799Z,9.55
2023-04-10T20:04:08.480Z,10.63
2023-04-10T20:06:37.599Z,8.98
2023-04-10T20:09:08.213Z,7.07
2023-04-10T20:11:37.277Z,10.98
2023-04-10T20:14:06.373Z,7.18
2023-04-10T20:16:35.549Z,5.22
2023-04-10T20:19:05.133Z,7.65
2023-04-10T20:21:38.028Z,9.95
2023-04-10T20:24:08.443Z,9.55
2023-04-10T20:26:37.340Z,9.52
2023-04-10T20:29:07.699Z,9.43
2023-04-10T20:31:37.420Z,8.13
2023-04-10T20:34:07.016Z,7.63
2023-04-10T20:36:37.910Z,11.10
2023-04-10T20:39:07.238Z,8.27
2023-04-10T20:41:36.308Z,8.00
2023-04-10T20:44:06.562Z,7.18
2023-04-10T20:46:35.749Z,7.43
2023-04-10T20:49:04.885Z,12.52
2023-04-10T20:51:37.215Z,6.05
2023-04-10T20:56:43.468Z,8.23
2023-04-10T20:59:13.001Z,10.85
2023-04-10T21:01:42.031Z,10.88
2023-04-10T21:04:11.143Z,7.45
2023-04-10T21:06:39.985Z,6.40
2023-04-10T21:09:10.227Z,6.95
2023-04-10T21:11:39.217Z,6.13
2023-04-10T21:14:09.190Z,7.22
2023-04-10T21:16:42.302Z,10.35
2023-04-10T21:19:12.318Z,8.98
2023-04-10T21:21:41.485Z,6.50
2023-04-10T21:24:11.774Z,9.32
2023-04-10T21:26:40.482Z,5.30
2023-04-10T21:29:09.482Z,11.82
2023-04-10T21:31:38.413Z,10.93
2023-04-10T21:34:07.406Z,4.55
2023-04-10T21:36:36.268Z,11.60
2023-04-10T21:39:09.112Z,6.85
2023-04-10T21:41:39.792Z,8.18
2023-04-10T21:44:08.851Z,7.22
2023-04-10T21:46:38.063Z,8.48
2023-04-10T21:49:06.899Z,8.20
2023-04-10T21:51:36.176Z,4.82
2023-04-10T21:54:05.709Z,11.75
2023-04-10T21:56:35.732Z,9.68
2023-04-10T21:59:07.589Z,8.40
2023-04-10T22:01:37.945Z,10.43
2023-04-10T22:04:07.497Z,9.45
2023-04-10T22:06:38.471Z,4.75
2023-04-10T22:09:07.308Z,17.13
2023-04-10T22:11:39.387Z,8.50
2023-04-10T22:14:17.252Z,8.75
2023-04-10T22:16:47.295Z,10.38
2023-04-10T22:19:16.472Z,12.10
2023-04-10T22:21:45.686Z,11.23
2023-04-10T22:24:15.214Z,9.50
2023-04-10T22:26:46.119Z,8.93
2023-04-10T22:29:16.689Z,11.55
2023-04-10T22:31:46.380Z,10.05
2023-04-10T22:34:15.516Z,9.48
2023-04-10T22:39:16.428Z,11.18
2023-04-10T22:41:45.438Z,12.10
2023-04-10T22:44:18.694Z,12.43
2023-04-10T22:46:48.517Z,10.60
2023-04-10T22:49:17.832Z,19.50
2023-04-10T22:51:47.183Z,10.75
2023-04-10T22:54:17.097Z,16.40
2023-04-10T22:56:45.938Z,10.63
2023-04-10T22:59:18.456Z,12.00
2023-04-10T23:04:15.965Z,13.95
2023-04-10T23:06:44.740Z,17.00
2023-04-10T23:09:13.633Z,13.27
2023-04-10T23:11:42.540Z,11.13
2023-04-10T23:14:11.777Z,16.13
2023-04-10T23:16:43.916Z,13.88
2023-04-10T23:19:12.901Z,13.73
2023-04-10T23:21:41.760Z,17.70
2023-04-10T23:24:10.632Z,14.07
2023-04-10T23:26:39.398Z,23.05
2023-04-10T23:29:08.198Z,16.13
2023-04-10T23:31:37.212Z,15.77
2023-04-10T23:34:07.372Z,18.08
2023-04-10T23:36:36.551Z,16.27
2023-04-10T23:39:05.468Z,28.05
2023-04-10T23:41:37.331Z,16.50
2023-04-10T23:44:06.672Z,17.85
2023-04-10T23:46:35.694Z,18.60
2023-04-10T23:49:06.003Z,13.73
2023-04-10T23:51:34.864Z,26.92
2023-04-10T23:54:04.149Z,12.80
2023-04-10T23:56:33.150Z,10.38
2023-04-10T23:59:02.032Z,21.70
